createdAt,value
2023-02-17T00:00:19.003Z,92.90
2023-02-17T00:02:20.545Z,93.99
2023-02-17T00:04:22.097Z,94.26
2023-02-17T00:06:27.099Z,94.20
2023-02-17T00:08:28.645Z,94.23
2023-02-17T00:10:30.109Z,94.26
2023-02-17T00:12:31.696Z,94.29
2023-02-17T00:14:33.234Z,94.17
2023-02-17T00:16:34.805Z,94.50
2023-02-17T00:18:37.065Z,93.93
2023-02-17T00:20:38.603Z,94.43
2023-02-17T00:22:40.159Z,94.27
2023-02-17T00:24:42.034Z,95.20
2023-02-17T00:26:44.454Z,95.05
2023-02-17T00:28:47.323Z,95.20
2023-02-17T00:30:49.213Z,95.71
2023-02-17T00:33:00.403Z,95.77
2023-02-17T00:35:02.021Z,96.10
2023-02-17T00:37:03.789Z,96.14
2023-02-17T00:39:07.564Z,95.73
2023-02-17T00:41:09.760Z,94.63
2023-02-17T00:43:11.296Z,93.95
2023-02-17T00:45:12.836Z,93.51
2023-02-17T00:47:14.375Z,92.70
2023-02-17T00:49:25.623Z,93.00
2023-02-17T00:51:27.390Z,91.87
2023-02-17T00:53:29.854Z,93.03
2023-02-17T00:55:31.646Z,92.78
2023-02-17T00:57:33.229Z,92.41
2023-02-17T00:59:35.940Z,92.30
2023-02-17T01:01:38.398Z,92.01
2023-02-17T01:03:42.132Z,91.74
2023-02-17T01:05:46.412Z,92.27
2023-02-17T01:07:49.579Z,92.86
2023-02-17T01:09:51.156Z,92.56
2023-02-17T01:11:52.656Z,92.37
2023-02-17T01:13:55.547Z,92.80
2023-02-17T01:15:57.231Z,92.32
2023-02-17T01:17:59.506Z,92.69
2023-02-17T01:20:02.211Z,92.50
2023-02-17T01:22:04.129Z,92.87
2023-02-17T01:24:07.573Z,92.59
2023-02-17T01:26:15.841Z,91.40
2023-02-17T01:28:21.157Z,91.82
2023-02-17T01:30:23.363Z,92.72
2023-02-17T01:32:24.889Z,92.86
2023-02-17T01:34:26.792Z,92.32
2023-02-17T01:36:28.748Z,92.16
2023-02-17T01:38:30.292Z,90.75
2023-02-17T01:40:31.838Z,90.63
2023-02-17T01:42:33.366Z,91.45
2023-02-17T01:44:34.949Z,91.42
2023-02-17T01:46:37.374Z,90.73
2023-02-17T01:48:48.904Z,91.03
2023-02-17T01:51:01.104Z,91.68
2023-02-17T01:53:05.139Z,91.90
2023-02-17T01:55:11.013Z,91.92
2023-02-17T01:57:16.707Z,92.15
2023-02-17T01:59:22.253Z,92.14
2023-02-17T02:01:23.944Z,93.11
2023-02-17T02:03:27.694Z,92.85
2023-02-17T02:05:29.434Z,93.45
2023-02-17T02:07:38.838Z,93.24
2023-02-17T02:09:46.524Z,94.64
2023-02-17T02:11:50.577Z,95.57
2023-02-17T02:13:52.260Z,95.31
2023-02-17T02:16:04.244Z,96.02
2023-02-17T02:18:14.932Z,95.70
2023-02-17T02:20:37.459Z,95.33
2023-02-17T02:23:09.965Z,94.89
2023-02-17T02:25:44.622Z,94.15
2023-02-17T02:28:23.547Z,93.93
2023-02-17T02:30:43.610Z,95.19
2023-02-17T02:33:02.859Z,95.74
2023-02-17T02:35:12.608Z,94.57
2023-02-17T02:37:18.145Z,94.99
2023-02-17T02:39:23.615Z,93.86
2023-02-17T02:41:33.022Z,94.66
2023-02-17T02:43:34.871Z,95.80
2023-02-17T02:45:36.431Z,95.17
2023-02-17T02:47:50.593Z,95.19
2023-02-17T02:49:56.530Z,94.01
2023-02-17T02:52:43.718Z,93.74
2023-02-17T02:55:10.034Z,94.26
2023-02-17T02:57:31.912Z,93.76
2023-02-17T02:59:59.264Z,93.59
2023-02-17T03:02:29.478Z,95.11
2023-02-17T03:04:48.057Z,93.85
2023-02-17T03:06:59.070Z,93.95
2023-02-17T03:09:06.492Z,93.28
2023-02-17T03:11:08.082Z,92.89
2023-02-17T03:13:10.620Z,93.94
2023-02-17T03:15:19.094Z,93.76
2023-02-17T03:17:20.651Z,94.19
2023-02-17T03:19:25.338Z,94.04
2023-02-17T03:21:33.745Z,94.01
2023-02-17T03:23:35.743Z,93.95
2023-02-17T03:25:37.420Z,94.13
2023-02-17T03:27:39.176Z,93.99
2023-02-17T03:29:41.127Z,93.29
2023-02-17T03:31:42.962Z,93.79
2023-02-17T03:33:44.609Z,93.80
2023-02-17T03:35:46.366Z,93.31
2023-02-17T03:37:47.904Z,93.43
2023-02-17T03:39:49.420Z,93.69
2023-02-17T03:41:51.641Z,93.23
2023-02-17T03:43:53.151Z,94.57
2023-02-17T03:45:54.707Z,95.07
2023-02-17T03:47:56.283Z,94.81
2023-02-17T03:49:58.596Z,94.46
2023-02-17T03:52:00.230Z,93.75
2023-02-17T03:54:02.047Z,93.10
2023-02-17T03:56:03.897Z,93.45
2023-02-17T03:58:05.572Z,93.22
2023-02-17T04:00:07.739Z,93.04
2023-02-17T04:02:14.513Z,93.51
2023-02-17T04:04:16.341Z,92.74
2023-02-17T04:06:18.337Z,92.71
2023-02-17T04:08:21.067Z,92.89
2023-02-17T04:10:22.491Z,93.25
2023-02-17T04:12:23.956Z,92.83
2023-02-17T04:14:26.497Z,93.37
2023-02-17T04:16:29.270Z,93.85
2023-02-17T04:18:32.178Z,93.90
2023-02-17T04:20:33.728Z,92.96
2023-02-17T04:22:35.197Z,92.57
2023-02-17T04:24:37.181Z,92.51
2023-02-17T04:26:38.714Z,93.06
2023-02-17T04:28:42.209Z,93.16
2023-02-17T04:30:46.557Z,94.28
2023-02-17T04:32:48.065Z,94.00
2023-02-17T04:34:49.579Z,94.92
2023-02-17T04:36:51.208Z,94.66
2023-02-17T04:38:53.035Z,94.81
2023-02-17T04:40:55.944Z,95.43
2023-02-17T04:42:57.451Z,95.42
2023-02-17T04:44:59.503Z,96.11
2023-02-17T04:47:01.048Z,96.73
2023-02-17T04:49:02.736Z,96.79
2023-02-17T04:51:05.310Z,96.27
2023-02-17T04:53:06.966Z,96.05
2023-02-17T04:55:08.909Z,95.50
2023-02-17T04:57:10.758Z,96.36
2023-02-17T04:59:12.266Z,96.42
2023-02-17T05:01:13.934Z,96.70
2023-02-17T05:03:16.308Z,96.36
2023-02-17T05:05:19.026Z,96.22
2023-02-17T05:07:21.082Z,97.09
2023-02-17T05:09:22.571Z,96.85
2023-02-17T05:11:24.317Z,96.59
2023-02-17T05:13:27.372Z,96.08
2023-02-17T05:15:28.933Z,95.91
2023-02-17T05:17:30.520Z,96.02
2023-02-17T05:19:32.009Z,95.27
2023-02-17T05:21:33.536Z,95.92
2023-02-17T05:23:40.908Z,96.61
2023-02-17T05:25:42.683Z,96.29
2023-02-17T05:27:44.222Z,96.42
2023-02-17T05:29:46.717Z,95.69
2023-02-17T05:31:48.758Z,97.24
2023-02-17T05:33:50.388Z,98.05
2023-02-17T05:35:52.001Z,98.00
2023-02-17T05:37:53.500Z,98.28
2023-02-17T05:39:55.076Z,98.55
2023-02-17T05:41:57.090Z,98.52
2023-02-17T05:43:58.678Z,99.10
2023-02-17T05:46:04.181Z,98.96
2023-02-17T05:48:05.835Z,99.27
2023-02-17T05:50:08.464Z,99.07
2023-02-17T05:52:10.886Z,99.84
2023-02-17T05:54:12.556Z,99.70
2023-02-17T05:56:14.132Z,100.00
2023-02-17T05:58:15.741Z,100.00
2023-02-17T06:00:17.452Z,100.00
2023-02-17T06:02:19.158Z,100.00
2023-02-17T06:04:20.727Z,100.00
2023-02-17T06:06:22.222Z,100.00
2023-02-17T06:08:23.794Z,100.00
2023-02-17T06:10:25.340Z,100.00
2023-02-17T06:12:26.869Z,100.00
2023-02-17T06:14:28.448Z,100.00
2023-02-17T06:16:30.671Z,100.00
2023-02-17T06:18:32.260Z,100.00
2023-02-17T06:20:33.758Z,100.00
2023-02-17T06:22:35.317Z,100.00
2023-02-17T06:24:37.205Z,100.00
2023-02-17T06:26:38.703Z,100.00
2023-02-17T06:28:40.215Z,100.00
2023-02-17T06:30:42.029Z,100.00
2023-02-17T06:32:43.996Z,100.00
2023-02-17T06:34:45.810Z,100.00
2023-02-17T06:36:47.425Z,100.00
2023-02-17T06:38:49.220Z,100.00
2023-02-17T06:40:50.845Z,100.00
2023-02-17T06:42:52.594Z,100.00
2023-02-17T06:44:54.055Z,100.00
2023-02-17T06:46:56.521Z,100.00
2023-02-17T06:48:59.975Z,100.00
2023-02-17T06:51:01.565Z,100.00
2023-02-17T06:53:03.330Z,100.00
2023-02-17T06:55:05.372Z,100.00
2023-02-17T06:57:07.151Z,100.00
2023-02-17T06:59:08.970Z,100.00
2023-02-17T07:01:22.989Z,100.00
2023-02-17T07:03:24.538Z,100.00
2023-02-17T07:05:26.624Z,100.00
2023-02-17T07:07:28.497Z,100.00
2023-02-17T07:09:30.333Z,100.00
2023-02-17T07:11:32.810Z,100.00
2023-02-17T07:13:34.772Z,100.00
2023-02-17T07:15:36.355Z,100.00
2023-02-17T07:17:37.878Z,100.00
2023-02-17T07:19:39.795Z,100.00
2023-02-17T07:21:41.355Z,100.00
2023-02-17T07:23:42.908Z,100.00
2023-02-17T07:25:44.516Z,100.00
2023-02-17T07:27:46.049Z,100.00
2023-02-17T07:29:47.812Z,100.00
2023-02-17T07:31:49.665Z,100.00
2023-02-17T07:33:51.326Z,100.00
2023-02-17T07:35:53.895Z,100.00
2023-02-17T07:37:57.425Z,100.00
2023-02-17T07:39:58.910Z,100.00
2023-02-17T07:42:01.108Z,100.00
2023-02-17T07:44:03.245Z,100.00
2023-02-17T07:46:06.680Z,100.00
2023-02-17T07:48:08.554Z,100.00
2023-02-17T07:50:10.596Z,100.00
2023-02-17T07:52:12.319Z,100.00
2023-02-17T07:54:14.046Z,100.00
2023-02-17T07:56:17.776Z,100.00
2023-02-17T07:58:19.296Z,100.00
2023-02-17T08:00:21.092Z,100.00
2023-02-17T08:02:22.904Z,100.00
2023-02-17T08:04:25.197Z,100.00
2023-02-17T08:06:27.442Z,100.00
2023-02-17T08:08:48.143Z,100.00
2023-02-17T08:11:08.645Z,100.00
2023-02-17T08:13:19.928Z,100.00
2023-02-17T08:15:21.523Z,100.00
2023-02-17T08:17:23.276Z,100.00
2023-02-17T08:19:27.221Z,100.00
2023-02-17T08:21:31.723Z,100.00
2023-02-17T08:23:35.187Z,100.00
2023-02-17T08:25:37.207Z,100.00
2023-02-17T08:27:38.740Z,99.59
2023-02-17T08:29:41.190Z,100.00
2023-02-17T08:31:43.229Z,99.84
2023-02-17T08:33:44.961Z,100.00
2023-02-17T08:35:46.766Z,100.00
2023-02-17T08:37:49.582Z,100.00
2023-02-17T08:39:51.080Z,100.00
2023-02-17T08:41:53.057Z,100.00
2023-02-17T08:43:56.224Z,100.00
2023-02-17T08:45:57.709Z,100.00
2023-02-17T08:47:59.331Z,99.95
2023-02-17T08:50:01.158Z,100.00
2023-02-17T08:52:03.347Z,100.00
2023-02-17T08:54:06.876Z,100.00
2023-02-17T08:56:08.756Z,100.00
2023-02-17T08:58:10.495Z,100.00
2023-02-17T09:00:13.263Z,100.00
2023-02-17T09:02:16.366Z,100.00
2023-02-17T09:04:18.118Z,100.00
2023-02-17T09:06:21.197Z,100.00
2023-02-17T09:08:23.277Z,100.00
2023-02-17T09:10:24.855Z,100.00
2023-02-17T09:12:26.388Z,100.00
2023-02-17T09:14:27.971Z,100.00
2023-02-17T09:16:30.799Z,100.00
2023-02-17T09:18:32.499Z,100.00
2023-02-17T09:20:34.139Z,100.00
2023-02-17T09:22:36.213Z,100.00
2023-02-17T09:24:39.926Z,100.00
2023-02-17T09:26:42.222Z,100.00
2023-02-17T09:28:45.644Z,100.00
2023-02-17T09:30:47.614Z,100.00
2023-02-17T09:32:49.276Z,100.00
2023-02-17T09:34:50.861Z,100.00
2023-02-17T09:36:52.449Z,100.00
2023-02-17T09:38:54.455Z,100.00
2023-02-17T09:41:02.628Z,100.00
2023-02-17T09:43:04.212Z,100.00
2023-02-17T09:45:12.919Z,100.00
2023-02-17T09:47:20.104Z,100.00
2023-02-17T09:49:26.575Z,100.00
2023-02-17T09:51:39.146Z,100.00
2023-02-17T09:54:18.340Z,100.00
2023-02-17T09:56:32.585Z,100.00
2023-02-17T09:58:51.537Z,100.00
2023-02-17T10:01:02.625Z,100.00
2023-02-17T10:03:26.460Z,100.00
2023-02-17T10:05:34.962Z,100.00
2023-02-17T10:07:41.861Z,100.00
2023-02-17T10:10:04.510Z,100.00
2023-02-17T10:12:10.919Z,100.00
2023-02-17T10:14:18.284Z,100.00
2023-02-17T10:16:53.335Z,100.00
2023-02-17T10:19:15.162Z,100.00
2023-02-17T10:21:22.120Z,100.00
2023-02-17T10:23:26.735Z,100.00
2023-02-17T10:25:50.805Z,100.00
2023-02-17T10:28:02.537Z,100.00
2023-02-17T10:30:27.065Z,100.00
2023-02-17T10:32:30.314Z,100.00
2023-02-17T10:34:50.674Z,100.00
2023-02-17T10:37:14.052Z,100.00
2023-02-17T10:39:34.526Z,100.00
2023-02-17T10:41:39.989Z,100.00
2023-02-17T10:43:43.980Z,100.00
2023-02-17T10:45:49.750Z,100.00
2023-02-17T10:47:59.151Z,100.00
2023-02-17T10:50:01.393Z,100.00
2023-02-17T10:52:13.350Z,100.00
2023-02-17T10:54:38.859Z,100.00
2023-02-17T10:56:47.104Z,100.00
2023-02-17T10:59:06.383Z,100.00
2023-02-17T11:01:08.496Z,100.00
2023-02-17T11:03:21.859Z,100.00
2023-02-17T11:05:33.515Z,100.00
2023-02-17T11:07:41.121Z,100.00
2023-02-17T11:09:58.395Z,100.00
2023-02-17T11:12:03.520Z,100.00
2023-02-17T11:14:19.185Z,100.00
2023-02-17T11:16:44.183Z,100.00
2023-02-17T11:18:48.745Z,100.00
2023-02-17T11:20:50.414Z,100.00
2023-02-17T11:25:38.486Z,100.00
2023-02-17T11:27:40.198Z,100.00
2023-02-17T11:29:42.029Z,100.00
2023-02-17T11:37:48.711Z,100.00
2023-02-17T11:40:29.064Z,100.00
2023-02-17T11:42:59.296Z,100.00
2023-02-17T11:45:23.089Z,100.00
2023-02-17T11:56:56.271Z,100.00
2023-02-17T11:59:53.509Z,100.00
2023-02-17T12:02:58.374Z,100.00
2023-02-17T12:05:35.308Z,100.00
2023-02-17T12:08:30.743Z,100.00
2023-02-17T12:11:08.010Z,100.00
2023-02-17T12:14:01.421Z,100.00
2023-02-17T12:16:59.369Z,100.00
2023-02-17T12:19:24.319Z,100.00
2023-02-17T12:22:01.659Z,100.00
2023-02-17T12:24:34.361Z,100.00
2023-02-17T12:27:11.890Z,100.00
2023-02-17T12:29:52.547Z,100.00
2023-02-17T12:32:29.048Z,100.00
2023-02-17T12:34:55.624Z,100.00
2023-02-17T12:37:21.079Z,100.00
2023-02-17T12:39:52.327Z,100.00
2023-02-17T12:42:21.909Z,100.00
2023-02-17T12:44:56.342Z,100.00
2023-02-17T12:47:55.098Z,100.00
2023-02-17T12:50:27.019Z,100.00
2023-02-17T12:52:54.702Z,100.00
2023-02-17T12:55:22.097Z,100.00
2023-02-17T12:58:03.797Z,100.00
2023-02-17T13:00:40.705Z,100.00
2023-02-17T13:03:04.097Z,100.00
2023-02-17T13:05:34.067Z,100.00
2023-02-17T13:08:18.826Z,100.00
2023-02-17T13:10:41.394Z,100.00
2023-02-17T13:13:14.534Z,100.00
2023-02-17T13:15:43.005Z,100.00
2023-02-17T13:18:11.294Z,100.00
2023-02-17T13:20:57.858Z,100.00
2023-02-17T13:23:34.921Z,100.00
2023-02-17T13:26:07.453Z,100.00
2023-02-17T13:28:37.627Z,100.00
2023-02-17T13:31:09.744Z,100.00
2023-02-17T13:33:31.688Z,99.73
2023-02-17T13:35:53.807Z,99.98
2023-02-17T13:38:30.277Z,99.77
2023-02-17T13:40:52.509Z,100.00
2023-02-17T13:43:16.803Z,100.00
2023-02-17T13:45:43.266Z,99.65
2023-02-17T13:52:25.987Z,99.40
2023-02-17T13:54:56.331Z,99.47
2023-02-17T13:57:29.611Z,99.77
2023-02-17T13:59:51.864Z,99.42
2023-02-17T14:02:35.551Z,99.29
2023-02-17T14:05:00.595Z,99.11
2023-02-17T14:07:22.760Z,99.48
2023-02-17T14:09:55.110Z,99.75
2023-02-17T14:12:24.259Z,98.74
2023-02-17T14:14:46.180Z,98.88
2023-02-17T14:17:16.998Z,99.85
2023-02-17T14:19:19.363Z,99.48
2023-02-17T14:21:26.756Z,99.04
2023-02-17T14:23:28.365Z,99.74
2023-02-17T14:25:32.099Z,99.26
2023-02-17T14:27:44.791Z,99.37
2023-02-17T14:29:50.143Z,99.16
2023-02-17T14:31:53.249Z,99.06
2023-02-17T14:34:00.732Z,98.81
2023-02-17T14:36:06.783Z,99.43
2023-02-17T14:38:20.099Z,99.65
2023-02-17T14:40:23.919Z,99.49
2023-02-17T14:42:25.426Z,99.92
2023-02-17T14:44:26.914Z,100.00
2023-02-17T14:46:28.475Z,99.78
2023-02-17T14:48:30.006Z,99.52
2023-02-17T14:50:33.430Z,98.98
2023-02-17T14:52:44.072Z,99.60
2023-02-17T14:54:45.975Z,99.21
2023-02-17T14:57:02.277Z,99.14
2023-02-17T14:59:04.510Z,99.36
2023-02-17T15:01:05.994Z,98.94
2023-02-17T15:03:07.480Z,99.33
2023-02-17T15:05:09.175Z,99.62
2023-02-17T15:07:16.236Z,99.56
2023-02-17T15:09:23.636Z,99.80
2023-02-17T15:11:37.398Z,99.70
2023-02-17T15:13:38.948Z,99.67
2023-02-17T15:15:44.365Z,99.39
2023-02-17T15:17:46.203Z,99.37
2023-02-17T15:19:49.175Z,98.66
2023-02-17T15:21:52.132Z,99.17
2023-02-17T15:23:54.527Z,99.54
2023-02-17T15:25:56.465Z,99.70
2023-02-17T15:27:58.243Z,99.15
2023-02-17T15:29:59.855Z,98.94
2023-02-17T15:32:04.855Z,99.11
2023-02-17T15:34:13.062Z,99.61
2023-02-17T15:36:17.147Z,99.76
2023-02-17T15:38:19.428Z,99.80
2023-02-17T15:40:24.097Z,99.88
2023-02-17T15:42:26.095Z,100.00
2023-02-17T15:44:39.650Z,100.00
2023-02-17T15:46:42.163Z,99.60
2023-02-17T15:48:45.582Z,99.61
2023-02-17T15:50:47.102Z,100.00
2023-02-17T15:52:50.504Z,100.00
2023-02-17T15:54:53.693Z,99.71
2023-02-17T15:56:55.252Z,99.64
2023-02-17T15:59:00.518Z,99.63
2023-02-17T16:01:03.880Z,99.18
2023-02-17T16:03:06.272Z,99.80
2023-02-17T16:05:12.094Z,99.60
2023-02-17T16:07:14.239Z,99.84
2023-02-17T16:09:15.764Z,99.59
2023-02-17T16:11:19.368Z,99.95
2023-02-17T16:13:21.968Z,100.00
2023-02-17T16:15:26.007Z,99.54
2023-02-17T16:17:28.158Z,100.00
2023-02-17T16:19:29.840Z,99.44
2023-02-17T16:21:31.404Z,99.32
2023-02-17T16:23:32.914Z,99.53
2023-02-17T16:25:36.201Z,99.13
2023-02-17T16:27:38.417Z,99.50
2023-02-17T16:29:40.492Z,99.80
2023-02-17T16:31:42.661Z,99.39
2023-02-17T16:33:44.304Z,99.15
2023-02-17T16:35:46.107Z,99.30
2023-02-17T16:37:52.891Z,99.82
2023-02-17T16:39:54.658Z,99.50
2023-02-17T16:41:56.185Z,99.85
2023-02-17T16:43:57.691Z,99.65
2023-02-17T16:46:03.133Z,99.35
2023-02-17T16:48:07.734Z,99.79
2023-02-17T16:50:18.437Z,99.47
2023-02-17T16:52:24.825Z,99.03
2023-02-17T16:54:26.492Z,99.63
2023-02-17T16:56:35.822Z,99.73
2023-02-17T16:58:38.931Z,99.52
2023-02-17T17:00:40.478Z,99.68
2023-02-17T17:02:42.683Z,99.38
2023-02-17T17:04:44.240Z,99.79
2023-02-17T17:06:51.348Z,99.84
2023-02-17T17:08:53.296Z,99.35
2023-02-17T17:10:55.065Z,99.56
2023-02-17T17:12:57.112Z,99.16
2023-02-17T17:14:58.665Z,99.35
2023-02-17T17:17:01.619Z,99.40
2023-02-17T17:19:03.928Z,99.37
2023-02-17T17:21:05.705Z,99.60
2023-02-17T17:23:12.513Z,99.46
2023-02-17T17:25:14.937Z,99.18
2023-02-17T17:27:16.936Z,98.96
2023-02-17T17:29:19.594Z,99.20
2023-02-17T17:31:21.981Z,99.18
2023-02-17T17:33:23.541Z,98.73
2023-02-17T17:35:26.389Z,98.60
2023-02-17T17:37:28.025Z,99.04
2023-02-17T17:39:29.851Z,98.65
2023-02-17T17:41:31.654Z,99.51
2023-02-17T17:43:33.129Z,99.69
2023-02-17T17:45:34.881Z,99.34
2023-02-17T17:51:05.654Z,98.96
2023-02-17T17:53:07.974Z,99.02
2023-02-17T17:55:09.985Z,98.82
2023-02-17T17:57:12.699Z,98.37
2023-02-17T17:59:14.772Z,98.47
2023-02-17T18:01:36.192Z,98.44
2023-02-17T18:03:59.524Z,98.48
2023-02-17T18:06:27.465Z,98.19
2023-02-17T18:08:51.090Z,98.30
2023-02-17T18:11:16.895Z,98.39
2023-02-17T18:13:39.854Z,98.42
2023-02-17T18:16:02.979Z,98.11
2023-02-17T18:18:25.357Z,97.63
2023-02-17T18:23:35.112Z,97.25
2023-02-17T18:25:57.988Z,97.56
2023-02-17T18:28:20.060Z,97.83
2023-02-17T18:30:43.316Z,97.23
2023-02-17T18:33:05.992Z,97.17
2023-02-17T18:35:29.148Z,98.16
2023-02-17T18:37:51.638Z,97.35
2023-02-17T18:40:16.703Z,97.83
2023-02-17T18:42:45.383Z,97.90
2023-02-17T18:45:08.420Z,97.66
2023-02-17T18:47:30.319Z,98.04
2023-02-17T18:49:52.559Z,98.06
2023-02-17T18:52:14.956Z,98.49
2023-02-17T18:54:42.204Z,98.90
2023-02-17T18:57:04.189Z,99.62
2023-02-17T18:59:26.352Z,99.00
2023-02-17T19:01:48.482Z,98.71
2023-02-17T19:04:12.842Z,98.53
2023-02-17T19:06:35.803Z,98.42
2023-02-17T19:08:57.722Z,98.13
2023-02-17T19:11:21.464Z,98.63
2023-02-17T19:13:44.102Z,98.73
2023-02-17T19:16:15.057Z,98.43
2023-02-17T19:18:37.921Z,98.72
2023-02-17T19:20:59.869Z,98.01
2023-02-17T19:23:21.736Z,97.72
2023-02-17T19:25:43.586Z,97.99
2023-02-17T19:28:05.392Z,97.50
2023-02-17T19:30:27.445Z,97.64
2023-02-17T19:32:49.309Z,97.62
2023-02-17T19:35:11.810Z,97.55
2023-02-17T19:37:34.820Z,97.71
2023-02-17T19:39:56.967Z,97.10
2023-02-17T19:42:18.888Z,96.54
2023-02-17T19:44:40.822Z,96.41
2023-02-17T19:47:02.728Z,96.49
2023-02-17T19:49:24.814Z,96.99
2023-02-17T19:51:46.817Z,96.78
2023-02-17T19:54:09.011Z,97.68
2023-02-17T19:56:33.447Z,97.03
2023-02-17T19:58:56.458Z,97.18
2023-02-17T20:01:21.531Z,96.92
2023-02-17T20:03:44.570Z,97.57
2023-02-17T20:06:09.724Z,97.98
2023-02-17T20:08:31.925Z,98.08
2023-02-17T20:10:53.794Z,97.50
2023-02-17T20:13:15.650Z,97.57
2023-02-17T20:15:37.560Z,98.03
2023-02-17T20:17:59.841Z,98.09
2023-02-17T20:20:22.162Z,98.07
2023-02-17T20:22:44.011Z,98.48
2023-02-17T20:25:06.870Z,98.80
2023-02-17T20:27:28.812Z,98.77
2023-02-17T20:29:50.700Z,99.14
2023-02-17T20:32:12.766Z,99.55
2023-02-17T20:34:40.968Z,98.97
2023-02-17T20:36:42.432Z,99.08
2023-02-17T20:38:45.038Z,98.83
2023-02-17T20:40:46.560Z,98.91
2023-02-17T20:42:48.128Z,99.04
2023-02-17T20:44:50.935Z,99.30
2023-02-17T20:46:53.742Z,99.01
2023-02-17T20:48:56.423Z,99.14
2023-02-17T20:50:59.785Z,99.35
2023-02-17T20:53:02.875Z,99.94
2023-02-17T20:55:05.576Z,99.25
2023-02-17T20:57:14.757Z,99.51
2023-02-17T20:59:16.660Z,100.00
2023-02-17T21:01:19.834Z,100.00
2023-02-17T21:03:21.546Z,100.00
2023-02-17T21:05:24.446Z,100.00
2023-02-17T21:07:26.100Z,100.00
2023-02-17T21:09:30.030Z,100.00
2023-02-17T21:11:33.573Z,100.00
2023-02-17T21:13:37.298Z,100.00
2023-02-17T21:15:39.848Z,100.00
2023-02-17T21:17:43.527Z,100.00
2023-02-17T21:19:46.043Z,100.00
2023-02-17T21:21:47.971Z,100.00
2023-02-17T21:23:50.003Z,100.00
2023-02-17T21:25:51.611Z,100.00
2023-02-17T21:27:53.157Z,100.00
2023-02-17T21:29:54.661Z,100.00
2023-02-17T21:31:56.316Z,100.00
2023-02-17T21:33:59.040Z,100.00
2023-02-17T21:36:05.332Z,100.00
2023-02-17T21:38:07.327Z,100.00
2023-02-17T21:40:10.048Z,100.00
2023-02-17T21:42:11.686Z,100.00
2023-02-17T21:44:32.504Z,100.00
2023-02-17T21:46:34.837Z,100.00
2023-02-17T21:48:38.151Z,100.00
2023-02-17T21:50:39.687Z,100.00
2023-02-17T21:52:41.289Z,100.00
2023-02-17T21:54:42.848Z,100.00
2023-02-17T21:56:44.656Z,100.00
2023-02-17T21:58:51.755Z,100.00
2023-02-17T22:00:53.998Z,100.00
2023-02-17T22:02:55.556Z,100.00
2023-02-17T22:04:57.303Z,100.00
2023-02-17T22:06:58.784Z,100.00
2023-02-17T22:09:00.946Z,100.00
2023-02-17T22:11:02.624Z,100.00
2023-02-17T22:13:04.318Z,100.00
2023-02-17T22:15:06.841Z,100.00
2023-02-17T22:17:08.484Z,100.00
2023-02-17T22:19:15.591Z,100.00
2023-02-17T22:21:17.872Z,100.00
2023-02-17T22:23:19.627Z,100.00
2023-02-17T22:25:21.936Z,100.00
2023-02-17T22:27:23.459Z,100.00
2023-02-17T22:29:25.237Z,100.00
2023-02-17T22:31:29.023Z,100.00
2023-02-17T22:33:30.916Z,100.00
2023-02-17T22:35:32.747Z,100.00
2023-02-17T22:37:34.322Z,100.00
2023-02-17T22:39:36.018Z,100.00
2023-02-17T22:41:39.278Z,100.00
2023-02-17T22:43:42.085Z,100.00
2023-02-17T22:45:43.888Z,100.00
2023-02-17T22:47:45.836Z,100.00
2023-02-17T22:49:47.382Z,100.00
2023-02-17T22:51:49.441Z,100.00
2023-02-17T22:53:51.331Z,100.00
2023-02-17T22:55:57.219Z,100.00
2023-02-17T22:57:59.078Z,100.00
2023-02-17T23:00:00.788Z,100.00
2023-02-17T23:02:02.368Z,100.00
2023-02-17T23:04:04.863Z,100.00
2023-02-17T23:06:12.006Z,100.00
2023-02-17T23:08:13.813Z,100.00
2023-02-17T23:10:15.472Z,100.00
2023-02-17T23:12:16.981Z,100.00
2023-02-17T23:14:22.050Z,100.00
2023-02-17T23:16:23.628Z,100.00
2023-02-17T23:18:25.235Z,100.00
2023-02-17T23:20:26.813Z,100.00
2023-02-17T23:22:30.943Z,100.00
2023-02-17T23:24:32.432Z,100.00
2023-02-17T23:26:33.970Z,100.00
2023-02-17T23:28:35.719Z,100.00
2023-02-17T23:30:37.558Z,100.00
2023-02-17T23:32:39.521Z,100.00
2023-02-17T23:34:41.021Z,100.00
2023-02-17T23:36:44.278Z,100.00
2023-02-17T23:38:46.125Z,100.00
2023-02-17T23:40:51.944Z,100.00
2023-02-17T23:42:53.877Z,100.00
2023-02-17T23:44:55.378Z,100.00
2023-02-17T23:46:56.957Z,100.00
2023-02-17T23:48:58.651Z,100.00
2023-02-17T23:51:03.073Z,100.00
2023-02-17T23:53:05.257Z,100.00
2023-02-17T23:55:07.505Z,100.00
2023-02-17T23:57:09.070Z,100.00
2023-02-17T23:59:11.714Z,100.00
